sensor_id;sensor_type;location;lat;lon;timestamp;P1;durP1;ratioP1;P2;durP2;ratioP2
66609;SDS011;53468;48.276;14.416;2023-02-28T00:00:50;7.85;;;4.70;;
66609;SDS011;53468;48.276;14.416;2023-02-28T00:05:54;10.30;;;4.95;;
66609;SDS011;53468;48.276;14.416;2023-02-28T00:10:56;12.43;;;5.72;;
66609;SDS011;53468;48.276;14.416;2023-02-28T00:16:04;7.95;;;4.68;;
66609;SDS011;53468;48.276;14.416;2023-02-28T00:21:08;7.93;;;5.05;;
66609;SDS011;53468;48.276;14.416;2023-02-28T00:26:11;9.88;;;4.88;;
66609;SDS011;53468;48.276;14.416;2023-02-28T00:31:13;9.50;;;4.90;;
66609;SDS011;53468;48.276;14.416;2023-02-28T00:36:16;9.38;;;4.88;;
66609;SDS011;53468;48.276;14.416;2023-02-28T00:41:19;7.78;;;4.93;;
66609;SDS011;53468;48.276;14.416;2023-02-28T00:46:21;8.35;;;4.85;;
66609;SDS011;53468;48.276;14.416;2023-02-28T00:51:25;11.05;;;5.55;;
66609;SDS011;53468;48.276;14.416;2023-02-28T00:56:27;11.55;;;6.00;;
66609;SDS011;53468;48.276;14.416;2023-02-28T01:01:30;11.57;;;6.20;;
66609;SDS011;53468;48.276;14.416;2023-02-28T01:06:33;11.05;;;6.35;;
66609;SDS011;53468;48.276;14.416;2023-02-28T01:11:36;9.80;;;6.00;;
66609;SDS011;53468;48.276;14.416;2023-02-28T01:16:39;9.65;;;5.82;;
66609;SDS011;53468;48.276;14.416;2023-02-28T01:21:43;12.65;;;6.35;;
66609;SDS011;53468;48.276;14.416;2023-02-28T01:26:45;12.38;;;6.60;;
66609;SDS011;53468;48.276;14.416;2023-02-28T01:31:47;8.45;;;5.47;;
66609;SDS011;53468;48.276;14.416;2023-02-28T01:36:50;13.57;;;6.22;;
66609;SDS011;53468;48.276;14.416;2023-02-28T01:41:52;11.48;;;5.78;;
66609;SDS011;53468;48.276;14.416;2023-02-28T01:46:54;11.75;;;5.80;;
66609;SDS011;53468;48.276;14.416;2023-02-28T01:51:58;11.52;;;6.18;;
66609;SDS011;53468;48.276;14.416;2023-02-28T01:57:01;10.57;;;5.63;;
66609;SDS011;53468;48.276;14.416;2023-02-28T02:02:06;13.68;;;6.30;;
66609;SDS011;53468;48.276;14.416;2023-02-28T02:07:10;11.52;;;5.80;;
66609;SDS011;53468;48.276;14.416;2023-02-28T02:12:18;12.07;;;5.65;;
66609;SDS011;53468;48.276;14.416;2023-02-28T02:17:30;11.77;;;5.88;;
66609;SDS011;53468;48.276;14.416;2023-02-28T02:22:41;11.00;;;6.78;;
66609;SDS011;53468;48.276;14.416;2023-02-28T02:28:18;11.13;;;6.07;;
66609;SDS011;53468;48.276;14.416;2023-02-28T02:39:19;14.48;;;6.30;;
66609;SDS011;53468;48.276;14.416;2023-02-28T02:44:30;14.45;;;6.82;;
66609;SDS011;53468;48.276;14.416;2023-02-28T02:49:38;10.30;;;5.88;;
66609;SDS011;53468;48.276;14.416;2023-02-28T02:54:45;18.35;;;6.78;;
66609;SDS011;53468;48.276;14.416;2023-02-28T02:59:49;12.98;;;5.82;;
66609;SDS011;53468;48.276;14.416;2023-02-28T03:04:56;14.98;;;6.72;;
66609;SDS011;53468;48.276;14.416;2023-02-28T03:15:31;12.65;;;6.72;;
66609;SDS011;53468;48.276;14.416;2023-02-28T03:20:39;13.20;;;6.10;;
66609;SDS011;53468;48.276;14.416;2023-02-28T03:25:54;11.07;;;5.43;;
66609;SDS011;53468;48.276;14.416;2023-02-28T03:31:00;13.02;;;6.72;;
66609;SDS011;53468;48.276;14.416;2023-02-28T03:36:10;22.42;;;6.28;;
66609;SDS011;53468;48.276;14.416;2023-02-28T03:41:16;11.32;;;6.38;;
66609;SDS011;53468;48.276;14.416;2023-02-28T03:46:22;13.40;;;6.53;;
66609;SDS011;53468;48.276;14.416;2023-02-28T03:51:28;10.57;;;6.13;;
66609;SDS011;53468;48.276;14.416;2023-02-28T03:56:34;14.20;;;6.68;;
66609;SDS011;53468;48.276;14.416;2023-02-28T04:01:40;12.50;;;6.22;;
66609;SDS011;53468;48.276;14.416;2023-02-28T04:06:45;11.20;;;6.18;;
66609;SDS011;53468;48.276;14.416;2023-02-28T04:11:49;15.35;;;7.60;;
66609;SDS011;53468;48.276;14.416;2023-02-28T04:16:52;12.48;;;6.88;;
66609;SDS011;53468;48.276;14.416;2023-02-28T04:21:54;13.13;;;6.38;;
66609;SDS011;53468;48.276;14.416;2023-02-28T04:26:58;12.32;;;5.50;;
66609;SDS011;53468;48.276;14.416;2023-02-28T04:32:01;13.48;;;6.25;;
66609;SDS011;53468;48.276;14.416;2023-02-28T04:37:03;12.43;;;6.57;;
66609;SDS011;53468;48.276;14.416;2023-02-28T04:42:07;15.35;;;6.85;;
66609;SDS011;53468;48.276;14.416;2023-02-28T04:47:09;11.82;;;6.07;;
66609;SDS011;53468;48.276;14.416;2023-02-28T04:52:11;12.80;;;6.85;;
66609;SDS011;53468;48.276;14.416;2023-02-28T04:57:14;14.43;;;7.53;;
66609;SDS011;53468;48.276;14.416;2023-02-28T05:02:16;14.13;;;6.30;;
66609;SDS011;53468;48.276;14.416;2023-02-28T05:07:20;14.25;;;6.93;;
66609;SDS011;53468;48.276;14.416;2023-02-28T05:12:23;17.02;;;7.03;;
66609;SDS011;53468;48.276;14.416;2023-02-28T05:17:25;12.00;;;6.38;;
66609;SDS011;53468;48.276;14.416;2023-02-28T05:22:27;14.80;;;7.13;;
66609;SDS011;53468;48.276;14.416;2023-02-28T05:27:31;14.52;;;6.95;;
66609;SDS011;53468;48.276;14.416;2023-02-28T05:32:33;12.63;;;6.57;;
66609;SDS011;53468;48.276;14.416;2023-02-28T05:37:36;12.50;;;7.72;;
66609;SDS011;53468;48.276;14.416;2023-02-28T05:42:39;12.88;;;5.95;;
66609;SDS011;53468;48.276;14.416;2023-02-28T05:47:41;16.73;;;7.30;;
66609;SDS011;53468;48.276;14.416;2023-02-28T05:52:43;13.05;;;6.15;;
66609;SDS011;53468;48.276;14.416;2023-02-28T05:57:47;13.82;;;6.70;;
66609;SDS011;53468;48.276;14.416;2023-02-28T06:02:49;9.75;;;5.53;;
66609;SDS011;53468;48.276;14.416;2023-02-28T06:07:53;12.57;;;6.07;;
66609;SDS011;53468;48.276;14.416;2023-02-28T06:12:57;13.55;;;6.80;;
66609;SDS011;53468;48.276;14.416;2023-02-28T06:18:02;17.38;;;7.43;;
66609;SDS011;53468;48.276;14.416;2023-02-28T06:23:05;13.73;;;5.75;;
66609;SDS011;53468;48.276;14.416;2023-02-28T06:28:08;9.07;;;5.88;;
66609;SDS011;53468;48.276;14.416;2023-02-28T06:33:10;12.30;;;6.35;;
66609;SDS011;53468;48.276;14.416;2023-02-28T06:38:12;12.13;;;5.88;;
66609;SDS011;53468;48.276;14.416;2023-02-28T06:43:16;12.57;;;6.47;;
66609;SDS011;53468;48.276;14.416;2023-02-28T06:48:18;11.85;;;5.90;;
66609;SDS011;53468;48.276;14.416;2023-02-28T06:53:20;10.20;;;5.80;;
66609;SDS011;53468;48.276;14.416;2023-02-28T06:58:23;11.75;;;5.95;;
66609;SDS011;53468;48.276;14.416;2023-02-28T07:03:25;13.63;;;6.75;;
66609;SDS011;53468;48.276;14.416;2023-02-28T07:08:28;13.60;;;6.35;;
66609;SDS011;53468;48.276;14.416;2023-02-28T07:13:33;9.90;;;6.10;;
66609;SDS011;53468;48.276;14.416;2023-02-28T07:18:35;13.48;;;5.97;;
66609;SDS011;53468;48.276;14.416;2023-02-28T07:23:38;12.48;;;6.10;;
66609;SDS011;53468;48.276;14.416;2023-02-28T07:28:42;10.23;;;5.75;;
66609;SDS011;53468;48.276;14.416;2023-02-28T07:33:45;11.07;;;5.57;;
66609;SDS011;53468;48.276;14.416;2023-02-28T07:38:47;11.45;;;5.57;;
66609;SDS011;53468;48.276;14.416;2023-02-28T07:43:52;11.70;;;5.13;;
66609;SDS011;53468;48.276;14.416;2023-02-28T07:48:55;11.45;;;5.80;;
66609;SDS011;53468;48.276;14.416;2023-02-28T07:53:59;13.85;;;5.93;;
66609;SDS011;53468;48.276;14.416;2023-02-28T07:59:02;12.00;;;6.55;;
66609;SDS011;53468;48.276;14.416;2023-02-28T08:04:04;11.68;;;5.72;;
66609;SDS011;53468;48.276;14.416;2023-02-28T08:09:06;9.88;;;5.50;;
66609;SDS011;53468;48.276;14.416;2023-02-28T08:14:10;8.70;;;4.55;;
66609;SDS011;53468;48.276;14.416;2023-02-28T08:19:12;9.07;;;5.32;;
66609;SDS011;53468;48.276;14.416;2023-02-28T08:24:14;10.88;;;5.97;;
66609;SDS011;53468;48.276;14.416;2023-02-28T08:29:17;15.30;;;6.30;;
66609;SDS011;53468;48.276;14.416;2023-02-28T08:34:20;10.23;;;5.95;;
66609;SDS011;53468;48.276;14.416;2023-02-28T08:39:22;9.75;;;5.63;;
66609;SDS011;53468;48.276;14.416;2023-02-28T08:44:26;9.27;;;5.53;;
66609;SDS011;53468;48.276;14.416;2023-02-28T08:49:28;12.70;;;5.78;;
66609;SDS011;53468;48.276;14.416;2023-02-28T08:54:30;10.57;;;6.18;;
66609;SDS011;53468;48.276;14.416;2023-02-28T08:59:34;9.20;;;5.72;;
66609;SDS011;53468;48.276;14.416;2023-02-28T09:04:37;11.98;;;6.20;;
66609;SDS011;53468;48.276;14.416;2023-02-28T09:09:39;9.57;;;5.53;;
66609;SDS011;53468;48.276;14.416;2023-02-28T09:14:55;11.40;;;6.63;;
66609;SDS011;53468;48.276;14.416;2023-02-28T09:19:57;9.95;;;5.50;;
66609;SDS011;53468;48.276;14.416;2023-02-28T09:24:59;8.00;;;5.32;;
66609;SDS011;53468;48.276;14.416;2023-02-28T09:30:03;8.77;;;5.75;;
66609;SDS011;53468;48.276;14.416;2023-02-28T09:35:06;10.35;;;5.47;;
66609;SDS011;53468;48.276;14.416;2023-02-28T09:40:14;12.75;;;6.15;;
66609;SDS011;53468;48.276;14.416;2023-02-28T09:45:24;11.18;;;5.68;;
66609;SDS011;53468;48.276;14.416;2023-02-28T09:50:32;8.70;;;5.18;;
66609;SDS011;53468;48.276;14.416;2023-02-28T09:55:38;7.93;;;5.53;;
66609;SDS011;53468;48.276;14.416;2023-02-28T10:00:44;11.15;;;5.90;;
66609;SDS011;53468;48.276;14.416;2023-02-28T10:05:58;7.80;;;5.18;;
66609;SDS011;53468;48.276;14.416;2023-02-28T10:11:06;8.90;;;5.13;;
66609;SDS011;53468;48.276;14.416;2023-02-28T10:16:13;8.73;;;5.20;;
66609;SDS011;53468;48.276;14.416;2023-02-28T10:21:24;8.52;;;4.53;;
66609;SDS011;53468;48.276;14.416;2023-02-28T10:26:30;8.18;;;4.90;;
66609;SDS011;53468;48.276;14.416;2023-02-28T10:31:39;8.77;;;4.68;;
66609;SDS011;53468;48.276;14.416;2023-02-28T10:36:42;11.30;;;5.38;;
66609;SDS011;53468;48.276;14.416;2023-02-28T10:41:44;7.80;;;4.70;;
66609;SDS011;53468;48.276;14.416;2023-02-28T10:46:49;12.63;;;5.47;;
66609;SDS011;53468;48.276;14.416;2023-02-28T10:51:54;10.52;;;5.80;;
66609;SDS011;53468;48.276;14.416;2023-02-28T10:57:08;8.30;;;4.75;;
66609;SDS011;53468;48.276;14.416;2023-02-28T11:02:33;8.80;;;4.47;;
66609;SDS011;53468;48.276;14.416;2023-02-28T11:07:37;9.65;;;5.72;;
66609;SDS011;53468;48.276;14.416;2023-02-28T11:12:40;8.40;;;5.07;;
66609;SDS011;53468;48.276;14.416;2023-02-28T11:17:45;10.52;;;5.00;;
66609;SDS011;53468;48.276;14.416;2023-02-28T11:22:56;9.00;;;4.85;;
66609;SDS011;53468;48.276;14.416;2023-02-28T11:28:00;10.55;;;5.50;;
66609;SDS011;53468;48.276;14.416;2023-02-28T11:33:19;13.38;;;5.75;;
66609;SDS011;53468;48.276;14.416;2023-02-28T11:38:27;9.63;;;5.22;;
66609;SDS011;53468;48.276;14.416;2023-02-28T11:43:35;8.75;;;5.03;;
66609;SDS011;53468;48.276;14.416;2023-02-28T11:48:55;10.40;;;6.13;;
66609;SDS011;53468;48.276;14.416;2023-02-28T11:54:11;11.48;;;5.93;;
66609;SDS011;53468;48.276;14.416;2023-02-28T11:59:32;10.88;;;6.20;;
66609;SDS011;53468;48.276;14.416;2023-02-28T12:04:48;12.00;;;6.45;;
66609;SDS011;53468;48.276;14.416;2023-02-28T12:10:00;13.27;;;5.97;;
66609;SDS011;53468;48.276;14.416;2023-02-28T12:15:33;10.52;;;5.45;;
66609;SDS011;53468;48.276;14.416;2023-02-28T12:20:49;10.73;;;6.20;;
66609;SDS011;53468;48.276;14.416;2023-02-28T12:26:04;9.88;;;6.32;;
66609;SDS011;53468;48.276;14.416;2023-02-28T12:31:17;9.35;;;5.90;;
66609;SDS011;53468;48.276;14.416;2023-02-28T12:36:24;9.90;;;5.43;;
66609;SDS011;53468;48.276;14.416;2023-02-28T12:41:29;11.50;;;6.22;;
66609;SDS011;53468;48.276;14.416;2023-02-28T12:46:38;11.65;;;5.97;;
66609;SDS011;53468;48.276;14.416;2023-02-28T12:51:47;11.20;;;6.35;;
66609;SDS011;53468;48.276;14.416;2023-02-28T12:56:53;11.68;;;6.13;;
66609;SDS011;53468;48.276;14.416;2023-02-28T13:02:18;11.25;;;5.97;;
66609;SDS011;53468;48.276;14.416;2023-02-28T13:13:47;10.50;;;5.82;;
66609;SDS011;53468;48.276;14.416;2023-02-28T13:19:08;9.75;;;6.10;;
66609;SDS011;53468;48.276;14.416;2023-02-28T13:24:12;12.18;;;6.55;;
66609;SDS011;53468;48.276;14.416;2023-02-28T13:29:41;11.40;;;6.25;;
66609;SDS011;53468;48.276;14.416;2023-02-28T13:40:32;9.95;;;6.07;;
66609;SDS011;53468;48.276;14.416;2023-02-28T13:45:37;9.52;;;6.13;;
66609;SDS011;53468;48.276;14.416;2023-02-28T13:50:40;10.15;;;6.35;;
66609;SDS011;53468;48.276;14.416;2023-02-28T13:55:45;12.82;;;7.65;;
66609;SDS011;53468;48.276;14.416;2023-02-28T14:00:58;13.18;;;7.03;;
66609;SDS011;53468;48.276;14.416;2023-02-28T14:06:08;10.43;;;6.00;;
66609;SDS011;53468;48.276;14.416;2023-02-28T14:11:26;10.73;;;6.78;;
66609;SDS011;53468;48.276;14.416;2023-02-28T14:16:39;10.63;;;5.75;;
66609;SDS011;53468;48.276;14.416;2023-02-28T14:21:49;9.93;;;6.60;;
66609;SDS011;53468;48.276;14.416;2023-02-28T14:27:15;12.48;;;7.85;;
66609;SDS011;53468;48.276;14.416;2023-02-28T14:32:35;11.07;;;7.22;;
66609;SDS011;53468;48.276;14.416;2023-02-28T14:37:43;13.90;;;8.02;;
66609;SDS011;53468;48.276;14.416;2023-02-28T14:42:55;11.95;;;7.70;;
66609;SDS011;53468;48.276;14.416;2023-02-28T14:47:58;13.30;;;7.97;;
66609;SDS011;53468;48.276;14.416;2023-02-28T14:53:01;10.85;;;7.53;;
66609;SDS011;53468;48.276;14.416;2023-02-28T14:58:17;15.15;;;7.75;;
66609;SDS011;53468;48.276;14.416;2023-02-28T15:03:24;11.70;;;7.55;;
66609;SDS011;53468;48.276;14.416;2023-02-28T15:08:33;11.50;;;7.78;;
66609;SDS011;53468;48.276;14.416;2023-02-28T15:13:38;13.65;;;8.15;;
66609;SDS011;53468;48.276;14.416;2023-02-28T15:18:45;14.65;;;9.27;;
66609;SDS011;53468;48.276;14.416;2023-02-28T15:23:51;16.80;;;9.15;;
66609;SDS011;53468;48.276;14.416;2023-02-28T15:28:59;15.65;;;8.25;;
66609;SDS011;53468;48.276;14.416;2023-02-28T15:34:06;13.60;;;8.52;;
66609;SDS011;53468;48.276;14.416;2023-02-28T15:39:20;26.17;;;10.85;;
66609;SDS011;53468;48.276;14.416;2023-02-28T15:44:26;16.73;;;8.95;;
66609;SDS011;53468;48.276;14.416;2023-02-28T15:49:32;16.33;;;9.48;;
66609;SDS011;53468;48.276;14.416;2023-02-28T15:54:41;16.27;;;8.68;;
66609;SDS011;53468;48.276;14.416;2023-02-28T15:59:50;17.10;;;8.85;;
66609;SDS011;53468;48.276;14.416;2023-02-28T16:04:55;15.23;;;9.35;;
66609;SDS011;53468;48.276;14.416;2023-02-28T16:10:00;13.43;;;8.35;;
66609;SDS011;53468;48.276;14.416;2023-02-28T16:15:06;13.68;;;8.90;;
66609;SDS011;53468;48.276;14.416;2023-02-28T16:20:12;19.55;;;9.45;;
66609;SDS011;53468;48.276;14.416;2023-02-28T16:25:15;14.73;;;8.45;;
66609;SDS011;53468;48.276;14.416;2023-02-28T16:30:21;15.20;;;8.60;;
66609;SDS011;53468;48.276;14.416;2023-02-28T16:35:25;15.48;;;9.45;;
66609;SDS011;53468;48.276;14.416;2023-02-28T16:40:27;17.25;;;9.25;;
66609;SDS011;53468;48.276;14.416;2023-02-28T16:45:35;13.40;;;7.97;;
66609;SDS011;53468;48.276;14.416;2023-02-28T16:50:37;13.20;;;7.90;;
66609;SDS011;53468;48.276;14.416;2023-02-28T16:55:40;17.75;;;9.13;;
66609;SDS011;53468;48.276;14.416;2023-02-28T17:00:43;15.35;;;8.05;;
66609;SDS011;53468;48.276;14.416;2023-02-28T17:05:45;14.32;;;7.78;;
66609;SDS011;53468;48.276;14.416;2023-02-28T17:10:47;14.90;;;8.98;;
66609;SDS011;53468;48.276;14.416;2023-02-28T17:15:50;16.05;;;9.10;;
66609;SDS011;53468;48.276;14.416;2023-02-28T17:20:52;14.82;;;8.65;;
66609;SDS011;53468;48.276;14.416;2023-02-28T17:25:54;13.93;;;8.38;;
66609;SDS011;53468;48.276;14.416;2023-02-28T17:30:58;14.57;;;7.93;;
66609;SDS011;53468;48.276;14.416;2023-02-28T17:36:01;15.50;;;8.85;;
66609;SDS011;53468;48.276;14.416;2023-02-28T17:41:03;15.77;;;9.50;;
66609;SDS011;53468;48.276;14.416;2023-02-28T17:46:08;18.55;;;8.70;;
66609;SDS011;53468;48.276;14.416;2023-02-28T17:51:16;14.60;;;8.13;;
66609;SDS011;53468;48.276;14.416;2023-02-28T17:56:20;15.45;;;8.57;;
66609;SDS011;53468;48.276;14.416;2023-02-28T18:01:26;13.27;;;7.93;;
66609;SDS011;53468;48.276;14.416;2023-02-28T18:06:34;14.85;;;8.07;;
66609;SDS011;53468;48.276;14.416;2023-02-28T18:11:46;14.30;;;8.50;;
66609;SDS011;53468;48.276;14.416;2023-02-28T18:16:51;15.20;;;8.32;;
66609;SDS011;53468;48.276;14.416;2023-02-28T18:21:55;15.50;;;9.02;;
66609;SDS011;53468;48.276;14.416;2023-02-28T18:26:57;15.43;;;8.48;;
66609;SDS011;53468;48.276;14.416;2023-02-28T18:32:00;14.32;;;7.25;;
66609;SDS011;53468;48.276;14.416;2023-02-28T18:37:02;16.17;;;7.70;;
66609;SDS011;53468;48.276;14.416;2023-02-28T18:42:05;13.18;;;8.40;;
66609;SDS011;53468;48.276;14.416;2023-02-28T18:47:09;14.43;;;8.30;;
66609;SDS011;53468;48.276;14.416;2023-02-28T18:52:11;13.35;;;7.53;;
66609;SDS011;53468;48.276;14.416;2023-02-28T18:57:13;13.80;;;8.93;;
66609;SDS011;53468;48.276;14.416;2023-02-28T19:02:16;18.20;;;7.93;;
66609;SDS011;53468;48.276;14.416;2023-02-28T19:07:19;17.40;;;8.70;;
66609;SDS011;53468;48.276;14.416;2023-02-28T19:12:21;11.60;;;6.25;;
66609;SDS011;53468;48.276;14.416;2023-02-28T19:17:25;14.73;;;8.27;;
66609;SDS011;53468;48.276;14.416;2023-02-28T19:22:27;14.95;;;8.77;;
66609;SDS011;53468;48.276;14.416;2023-02-28T19:27:29;15.50;;;8.60;;
66609;SDS011;53468;48.276;14.416;2023-02-28T19:32:33;15.18;;;8.50;;
66609;SDS011;53468;48.276;14.416;2023-02-28T19:37:36;15.70;;;8.80;;
66609;SDS011;53468;48.276;14.416;2023-02-28T19:42:38;14.77;;;8.27;;
66609;SDS011;53468;48.276;14.416;2023-02-28T19:47:42;15.52;;;9.32;;
66609;SDS011;53468;48.276;14.416;2023-02-28T19:52:44;16.25;;;9.32;;
66609;SDS011;53468;48.276;14.416;2023-02-28T19:57:48;16.70;;;9.48;;
66609;SDS011;53468;48.276;14.416;2023-02-28T20:02:52;15.35;;;8.88;;
66609;SDS011;53468;48.276;14.416;2023-02-28T20:07:54;14.93;;;8.82;;
66609;SDS011;53468;48.276;14.416;2023-02-28T20:12:56;14.90;;;8.70;;
66609;SDS011;53468;48.276;14.416;2023-02-28T20:17:59;14.95;;;8.50;;
66609;SDS011;53468;48.276;14.416;2023-02-28T20:23:02;16.48;;;9.15;;
66609;SDS011;53468;48.276;14.416;2023-02-28T20:28:04;16.42;;;9.20;;
66609;SDS011;53468;48.276;14.416;2023-02-28T20:33:07;21.58;;;10.65;;
66609;SDS011;53468;48.276;14.416;2023-02-28T20:38:09;14.70;;;9.10;;
66609;SDS011;53468;48.276;14.416;2023-02-28T20:43:12;17.13;;;9.15;;
66609;SDS011;53468;48.276;14.416;2023-02-28T20:48:15;13.82;;;8.25;;
66609;SDS011;53468;48.276;14.416;2023-02-28T20:53:17;14.20;;;8.45;;
66609;SDS011;53468;48.276;14.416;2023-02-28T20:58:20;19.67;;;9.75;;
66609;SDS011;53468;48.276;14.416;2023-02-28T21:03:25;14.32;;;8.95;;
66609;SDS011;53468;48.276;14.416;2023-02-28T21:08:27;14.18;;;8.52;;
66609;SDS011;53468;48.276;14.416;2023-02-28T21:13:29;19.40;;;9.95;;
66609;SDS011;53468;48.276;14.416;2023-02-28T21:18:33;19.13;;;9.43;;
66609;SDS011;53468;48.276;14.416;2023-02-28T21:23:36;17.55;;;9.20;;
66609;SDS011;53468;48.276;14.416;2023-02-28T21:28:38;15.45;;;8.75;;
66609;SDS011;53468;48.276;14.416;2023-02-28T21:33:46;17.70;;;9.25;;
66609;SDS011;53468;48.276;14.416;2023-02-28T21:38:48;14.88;;;9.00;;
66609;SDS011;53468;48.276;14.416;2023-02-28T21:43:56;17.50;;;9.30;;
66609;SDS011;53468;48.276;14.416;2023-02-28T21:48:59;15.48;;;9.18;;
66609;SDS011;53468;48.276;14.416;2023-02-28T21:54:02;19.17;;;11.30;;
66609;SDS011;53468;48.276;14.416;2023-02-28T21:59:04;15.60;;;8.93;;
66609;SDS011;53468;48.276;14.416;2023-02-28T22:04:10;20.20;;;9.80;;
66609;SDS011;53468;48.276;14.416;2023-02-28T22:09:20;17.83;;;10.02;;
66609;SDS011;53468;48.276;14.416;2023-02-28T22:14:22;18.33;;;9.88;;
66609;SDS011;53468;48.276;14.416;2023-02-28T22:19:28;18.38;;;10.45;;
66609;SDS011;53468;48.276;14.416;2023-02-28T22:24:30;19.60;;;10.70;;
66609;SDS011;53468;48.276;14.416;2023-02-28T22:29:32;19.95;;;10.57;;
66609;SDS011;53468;48.276;14.416;2023-02-28T22:34:36;17.15;;;9.45;;
66609;SDS011;53468;48.276;14.416;2023-02-28T22:39:38;16.15;;;9.43;;
66609;SDS011;53468;48.276;14.416;2023-02-28T22:44:40;20.92;;;9.85;;
66609;SDS011;53468;48.276;14.416;2023-02-28T22:49:43;19.25;;;10.55;;
66609;SDS011;53468;48.276;14.416;2023-02-28T22:54:48;19.27;;;10.18;;
66609;SDS011;53468;48.276;14.416;2023-02-28T22:59:52;17.88;;;9.98;;
66609;SDS011;53468;48.276;14.416;2023-02-28T23:04:56;15.15;;;9.60;;
66609;SDS011;53468;48.276;14.416;2023-02-28T23:09:58;21.63;;;10.73;;
66609;SDS011;53468;48.276;14.416;2023-02-28T23:15:00;18.63;;;8.85;;
66609;SDS011;53468;48.276;14.416;2023-02-28T23:20:04;16.38;;;9.15;;
66609;SDS011;53468;48.276;14.416;2023-02-28T23:25:06;17.75;;;9.10;;
66609;SDS011;53468;48.276;14.416;2023-02-28T23:30:09;13.75;;;8.40;;
66609;SDS011;53468;48.276;14.416;2023-02-28T23:35:13;19.58;;;9.30;;
66609;SDS011;53468;48.276;14.416;2023-02-28T23:40:15;14.32;;;8.70;;
66609;SDS011;53468;48.276;14.416;2023-02-28T23:45:18;17.58;;;8.85;;
66609;SDS011;53468;48.276;14.416;2023-02-28T23:50:21;23.45;;;10.57;;
66609;SDS011;53468;48.276;14.416;2023-02-28T23:55:23;19.52;;;10.60;;
